sensor_id;sensor_type;location;lat;lon;timestamp;temperature;humidity
4910;DHT22;2470;49.868;8.660;2023-04-16T00:00:42;10.40;99.90
4910;DHT22;2470;49.868;8.660;2023-04-16T00:03:09;10.30;99.90
4910;DHT22;2470;49.868;8.660;2023-04-16T00:05:35;10.30;99.90
4910;DHT22;2470;49.868;8.660;2023-04-16T00:08:01;10.30;99.90
4910;DHT22;2470;49.868;8.660;2023-04-16T00:10:27;10.30;99.90
4910;DHT22;2470;49.868;8.660;2023-04-16T00:12:52;10.40;99.90
4910;DHT22;2470;49.868;8.660;2023-04-16T00:15:18;10.40;99.90
4910;DHT22;2470;49.868;8.660;2023-04-16T00:17:43;10.40;99.90
4910;DHT22;2470;49.868;8.660;2023-04-16T00:20:09;10.40;99.90
4910;DHT22;2470;49.868;8.660;2023-04-16T00:22:35;10.40;99.90
4910;DHT22;2470;49.868;8.660;2023-04-16T00:25:01;10.40;99.90
4910;DHT22;2470;49.868;8.660;2023-04-16T00:27:26;10.40;99.90
4910;DHT22;2470;49.868;8.660;2023-04-16T00:29:52;10.30;99.90
4910;DHT22;2470;49.868;8.660;2023-04-16T00:32:17;10.40;99.90
4910;DHT22;2470;49.868;8.660;2023-04-16T00:34:43;10.40;99.90
4910;DHT22;2470;49.868;8.660;2023-04-16T00:37:08;10.40;99.90
4910;DHT22;2470;49.868;8.660;2023-04-16T00:39:34;10.50;99.90
4910;DHT22;2470;49.868;8.660;2023-04-16T00:41:59;10.40;99.90
4910;DHT22;2470;49.868;8.660;2023-04-16T00:44:25;10.40;99.90
4910;DHT22;2470;49.868;8.660;2023-04-16T00:46:50;10.50;99.90
4910;DHT22;2470;49.868;8.660;2023-04-16T00:49:16;10.50;99.90
4910;DHT22;2470;49.868;8.660;2023-04-16T00:51:41;10.40;99.90
4910;DHT22;2470;49.868;8.660;2023-04-16T00:54:07;10.40;99.90
4910;DHT22;2470;49.868;8.660;2023-04-16T00:56:34;10.40;99.90
4910;DHT22;2470;49.868;8.660;2023-04-16T00:59:00;10.50;99.90
4910;DHT22;2470;49.868;8.660;2023-04-16T01:01:26;10.50;99.90
4910;DHT22;2470;49.868;8.660;2023-04-16T01:03:51;10.50;99.90
4910;DHT22;2470;49.868;8.660;2023-04-16T01:06:17;10.50;99.90
4910;DHT22;2470;49.868;8.660;2023-04-16T01:08:43;10.60;99.90
4910;DHT22;2470;49.868;8.660;2023-04-16T01:11:09;10.40;99.90
4910;DHT22;2470;49.868;8.660;2023-04-16T01:13:35;10.50;99.90
4910;DHT22;2470;49.868;8.660;2023-04-16T01:16:05;10.40;99.90
4910;DHT22;2470;49.868;8.660;2023-04-16T01:18:32;10.40;99.90
4910;DHT22;2470;49.868;8.660;2023-04-16T01:20:57;10.40;99.90
4910;DHT22;2470;49.868;8.660;2023-04-16T01:23:23;10.30;99.90
4910;DHT22;2470;49.868;8.660;2023-04-16T01:25:48;10.40;99.90
4910;DHT22;2470;49.868;8.660;2023-04-16T01:28:14;10.40;99.90
4910;DHT22;2470;49.868;8.660;2023-04-16T01:30:40;10.40;99.90
4910;DHT22;2470;49.868;8.660;2023-04-16T01:33:06;10.40;99.90
4910;DHT22;2470;49.868;8.660;2023-04-16T01:35:32;10.40;99.90
4910;DHT22;2470;49.868;8.660;2023-04-16T01:37:57;10.40;99.90
4910;DHT22;2470;49.868;8.660;2023-04-16T01:40:23;10.40;99.90
4910;DHT22;2470;49.868;8.660;2023-04-16T01:42:48;10.40;99.90
4910;DHT22;2470;49.868;8.660;2023-04-16T01:45:15;10.40;99.90
4910;DHT22;2470;49.868;8.660;2023-04-16T01:47:40;10.40;99.90
4910;DHT22;2470;49.868;8.660;2023-04-16T01:50:06;10.40;99.90
4910;DHT22;2470;49.868;8.660;2023-04-16T01:52:32;10.40;99.90
4910;DHT22;2470;49.868;8.660;2023-04-16T01:54:58;10.40;99.90
4910;DHT22;2470;49.868;8.660;2023-04-16T01:57:23;10.40;99.90
4910;DHT22;2470;49.868;8.660;2023-04-16T01:59:48;10.40;99.90
4910;DHT22;2470;49.868;8.660;2023-04-16T02:02:15;10.30;99.90
4910;DHT22;2470;49.868;8.660;2023-04-16T02:04:43;10.30;99.90
4910;DHT22;2470;49.868;8.660;2023-04-16T02:07:09;10.30;99.90
4910;DHT22;2470;49.868;8.660;2023-04-16T02:09:36;10.30;99.90
4910;DHT22;2470;49.868;8.660;2023-04-16T02:12:02;10.30;99.90
4910;DHT22;2470;49.868;8.660;2023-04-16T02:14:28;10.40;99.90
4910;DHT22;2470;49.868;8.660;2023-04-16T02:16:54;10.40;99.90
4910;DHT22;2470;49.868;8.660;2023-04-16T02:19:20;10.40;99.90
4910;DHT22;2470;49.868;8.660;2023-04-16T02:21:46;10.40;99.90
4910;DHT22;2470;49.868;8.660;2023-04-16T02:24:12;10.30;99.90
4910;DHT22;2470;49.868;8.660;2023-04-16T02:26:38;10.30;99.90
4910;DHT22;2470;49.868;8.660;2023-04-16T02:29:04;10.40;99.90
4910;DHT22;2470;49.868;8.660;2023-04-16T02:31:29;10.50;99.90
4910;DHT22;2470;49.868;8.660;2023-04-16T02:33:55;10.40;99.90
4910;DHT22;2470;49.868;8.660;2023-04-16T02:36:21;10.40;99.90
4910;DHT22;2470;49.868;8.660;2023-04-16T02:38:47;10.40;99.90
4910;DHT22;2470;49.868;8.660;2023-04-16T02:41:12;10.50;99.90
4910;DHT22;2470;49.868;8.660;2023-04-16T02:43:38;10.50;99.90
4910;DHT22;2470;49.868;8.660;2023-04-16T02:46:03;10.50;99.90
4910;DHT22;2470;49.868;8.660;2023-04-16T02:48:29;10.40;99.90
4910;DHT22;2470;49.868;8.660;2023-04-16T02:50:54;10.50;99.90
4910;DHT22;2470;49.868;8.660;2023-04-16T02:53:20;10.50;99.90
4910;DHT22;2470;49.868;8.660;2023-04-16T02:55:53;10.40;99.90
4910;DHT22;2470;49.868;8.660;2023-04-16T02:58:20;10.40;99.90
4910;DHT22;2470;49.868;8.660;2023-04-16T03:00:47;10.40;99.90
4910;DHT22;2470;49.868;8.660;2023-04-16T03:03:13;10.40;99.90
4910;DHT22;2470;49.868;8.660;2023-04-16T03:05:38;10.40;99.90
4910;DHT22;2470;49.868;8.660;2023-04-16T03:08:04;10.40;99.90
4910;DHT22;2470;49.868;8.660;2023-04-16T03:10:30;10.40;99.90
4910;DHT22;2470;49.868;8.660;2023-04-16T03:12:55;10.30;99.90
4910;DHT22;2470;49.868;8.660;2023-04-16T03:15:21;10.30;99.90
4910;DHT22;2470;49.868;8.660;2023-04-16T03:17:46;10.40;99.90
4910;DHT22;2470;49.868;8.660;2023-04-16T03:20:12;10.40;99.90
4910;DHT22;2470;49.868;8.660;2023-04-16T03:22:39;10.50;99.90
4910;DHT22;2470;49.868;8.660;2023-04-16T03:25:05;10.40;99.90
4910;DHT22;2470;49.868;8.660;2023-04-16T03:27:32;10.40;99.90
4910;DHT22;2470;49.868;8.660;2023-04-16T03:29:57;10.40;99.90
4910;DHT22;2470;49.868;8.660;2023-04-16T03:32:23;10.40;99.90
4910;DHT22;2470;49.868;8.660;2023-04-16T03:34:48;10.40;99.90
4910;DHT22;2470;49.868;8.660;2023-04-16T03:37:14;10.40;99.90
4910;DHT22;2470;49.868;8.660;2023-04-16T03:39:39;10.40;99.90
4910;DHT22;2470;49.868;8.660;2023-04-16T03:42:05;10.40;99.90
4910;DHT22;2470;49.868;8.660;2023-04-16T03:44:30;10.40;99.90
4910;DHT22;2470;49.868;8.660;2023-04-16T03:46:56;10.30;99.90
4910;DHT22;2470;49.868;8.660;2023-04-16T03:49:21;10.30;99.90
4910;DHT22;2470;49.868;8.660;2023-04-16T03:51:47;10.40;99.90
4910;DHT22;2470;49.868;8.660;2023-04-16T03:54:12;10.40;99.90
4910;DHT22;2470;49.868;8.660;2023-04-16T03:56:41;10.40;99.90
4910;DHT22;2470;49.868;8.660;2023-04-16T03:59:06;10.40;99.90
4910;DHT22;2470;49.868;8.660;2023-04-16T04:01:32;10.40;99.90
4910;DHT22;2470;49.868;8.660;2023-04-16T04:03:57;10.40;99.90
4910;DHT22;2470;49.868;8.660;2023-04-16T04:06:23;10.40;99.90
4910;DHT22;2470;49.868;8.660;2023-04-16T04:08:48;10.40;99.90
4910;DHT22;2470;49.868;8.660;2023-04-16T04:11:14;10.40;99.90
4910;DHT22;2470;49.868;8.660;2023-04-16T04:13:39;10.30;99.90
4910;DHT22;2470;49.868;8.660;2023-04-16T04:16:05;10.30;99.90
4910;DHT22;2470;49.868;8.660;2023-04-16T04:18:31;10.30;99.90
4910;DHT22;2470;49.868;8.660;2023-04-16T04:20:56;10.30;99.90
4910;DHT22;2470;49.868;8.660;2023-04-16T04:23:22;10.30;99.90
4910;DHT22;2470;49.868;8.660;2023-04-16T04:25:48;10.30;99.90
4910;DHT22;2470;49.868;8.660;2023-04-16T04:28:13;10.30;99.90
4910;DHT22;2470;49.868;8.660;2023-04-16T04:30:39;10.30;99.90
4910;DHT22;2470;49.868;8.660;2023-04-16T04:33:05;10.30;99.90
4910;DHT22;2470;49.868;8.660;2023-04-16T04:35:31;10.30;99.90
4910;DHT22;2470;49.868;8.660;2023-04-16T04:37:56;10.30;99.90
4910;DHT22;2470;49.868;8.660;2023-04-16T04:40:22;10.30;99.90
4910;DHT22;2470;49.868;8.660;2023-04-16T04:42:48;10.30;99.90
4910;DHT22;2470;49.868;8.660;2023-04-16T04:45:13;10.30;99.90
4910;DHT22;2470;49.868;8.660;2023-04-16T04:47:39;10.30;99.90
4910;DHT22;2470;49.868;8.660;2023-04-16T04:50:05;10.30;99.90
4910;DHT22;2470;49.868;8.660;2023-04-16T04:52:30;10.30;99.90
4910;DHT22;2470;49.868;8.660;2023-04-16T04:54:56;10.30;99.90
4910;DHT22;2470;49.868;8.660;2023-04-16T04:57:21;10.30;99.90
4910;DHT22;2470;49.868;8.660;2023-04-16T04:59:47;10.30;99.90
4910;DHT22;2470;49.868;8.660;2023-04-16T05:02:12;10.30;99.90
4910;DHT22;2470;49.868;8.660;2023-04-16T05:04:38;10.30;99.90
4910;DHT22;2470;49.868;8.660;2023-04-16T05:07:03;10.40;99.90
4910;DHT22;2470;49.868;8.660;2023-04-16T05:09:29;10.30;99.90
4910;DHT22;2470;49.868;8.660;2023-04-16T05:11:55;10.40;99.90
4910;DHT22;2470;49.868;8.660;2023-04-16T05:14:22;10.30;99.90
4910;DHT22;2470;49.868;8.660;2023-04-16T05:16:47;10.30;99.90
4910;DHT22;2470;49.868;8.660;2023-04-16T05:19:13;10.30;99.90
4910;DHT22;2470;49.868;8.660;2023-04-16T05:21:38;10.30;99.90
4910;DHT22;2470;49.868;8.660;2023-04-16T05:24:05;10.30;99.90
4910;DHT22;2470;49.868;8.660;2023-04-16T05:26:31;10.30;99.90
4910;DHT22;2470;49.868;8.660;2023-04-16T05:28:56;10.40;99.90
4910;DHT22;2470;49.868;8.660;2023-04-16T05:31:22;10.30;99.90
4910;DHT22;2470;49.868;8.660;2023-04-16T05:33:47;10.40;99.90
4910;DHT22;2470;49.868;8.660;2023-04-16T05:36:13;10.50;99.90
4910;DHT22;2470;49.868;8.660;2023-04-16T05:38:38;10.40;99.90
4910;DHT22;2470;49.868;8.660;2023-04-16T05:41:04;10.40;99.90
4910;DHT22;2470;49.868;8.660;2023-04-16T05:43:29;10.40;99.90
4910;DHT22;2470;49.868;8.660;2023-04-16T05:45:55;10.40;99.90
4910;DHT22;2470;49.868;8.660;2023-04-16T05:48:21;10.40;99.90
4910;DHT22;2470;49.868;8.660;2023-04-16T05:50:46;10.40;99.90
4910;DHT22;2470;49.868;8.660;2023-04-16T05:53:12;10.40;99.90
4910;DHT22;2470;49.868;8.660;2023-04-16T05:55:38;10.50;99.90
4910;DHT22;2470;49.868;8.660;2023-04-16T05:58:03;10.50;99.90
4910;DHT22;2470;49.868;8.660;2023-04-16T06:00:31;10.50;99.90
4910;DHT22;2470;49.868;8.660;2023-04-16T06:02:56;10.60;99.90
4910;DHT22;2470;49.868;8.660;2023-04-16T06:05:24;10.40;99.90
4910;DHT22;2470;49.868;8.660;2023-04-16T06:07:49;10.40;99.90
4910;DHT22;2470;49.868;8.660;2023-04-16T06:10:15;10.40;99.90
4910;DHT22;2470;49.868;8.660;2023-04-16T06:12:40;10.40;99.90
4910;DHT22;2470;49.868;8.660;2023-04-16T06:15:06;10.40;99.90
4910;DHT22;2470;49.868;8.660;2023-04-16T06:17:32;10.40;99.90
4910;DHT22;2470;49.868;8.660;2023-04-16T06:19:57;10.40;99.90
4910;DHT22;2470;49.868;8.660;2023-04-16T06:22:23;10.40;99.90
4910;DHT22;2470;49.868;8.660;2023-04-16T06:24:49;10.40;99.90
4910;DHT22;2470;49.868;8.660;2023-04-16T06:27:15;10.40;99.90
4910;DHT22;2470;49.868;8.660;2023-04-16T06:29:40;10.40;99.90
4910;DHT22;2470;49.868;8.660;2023-04-16T06:32:06;10.40;99.90
4910;DHT22;2470;49.868;8.660;2023-04-16T06:34:32;10.60;99.90
4910;DHT22;2470;49.868;8.660;2023-04-16T06:36:57;10.50;99.90
4910;DHT22;2470;49.868;8.660;2023-04-16T06:39:23;10.50;99.90
4910;DHT22;2470;49.868;8.660;2023-04-16T06:41:48;10.60;99.90
4910;DHT22;2470;49.868;8.660;2023-04-16T06:44:14;10.60;99.90
4910;DHT22;2470;49.868;8.660;2023-04-16T06:46:40;10.60;99.90
4910;DHT22;2470;49.868;8.660;2023-04-16T06:49:05;10.60;99.90
4910;DHT22;2470;49.868;8.660;2023-04-16T06:51:31;10.60;99.90
4910;DHT22;2470;49.868;8.660;2023-04-16T06:53:57;10.70;99.90
4910;DHT22;2470;49.868;8.660;2023-04-16T06:56:23;10.70;99.90
4910;DHT22;2470;49.868;8.660;2023-04-16T06:58:49;10.70;99.90
4910;DHT22;2470;49.868;8.660;2023-04-16T07:01:14;10.70;99.90
4910;DHT22;2470;49.868;8.660;2023-04-16T07:03:40;10.70;99.90
4910;DHT22;2470;49.868;8.660;2023-04-16T07:06:06;10.70;99.90
4910;DHT22;2470;49.868;8.660;2023-04-16T07:08:31;10.70;99.90
4910;DHT22;2470;49.868;8.660;2023-04-16T07:10:57;10.70;99.90
4910;DHT22;2470;49.868;8.660;2023-04-16T07:13:22;10.70;99.90
4910;DHT22;2470;49.868;8.660;2023-04-16T07:15:48;10.70;99.90
4910;DHT22;2470;49.868;8.660;2023-04-16T07:18:14;10.70;99.90
4910;DHT22;2470;49.868;8.660;2023-04-16T07:20:40;10.70;99.90
4910;DHT22;2470;49.868;8.660;2023-04-16T07:23:05;10.80;99.90
4910;DHT22;2470;49.868;8.660;2023-04-16T07:25:31;10.70;99.90
4910;DHT22;2470;49.868;8.660;2023-04-16T07:27:56;10.80;99.90
4910;DHT22;2470;49.868;8.660;2023-04-16T07:30:22;10.80;99.90
4910;DHT22;2470;49.868;8.660;2023-04-16T07:32:47;10.80;99.90
4910;DHT22;2470;49.868;8.660;2023-04-16T07:35:13;10.80;99.90
4910;DHT22;2470;49.868;8.660;2023-04-16T07:37:38;10.70;99.90
4910;DHT22;2470;49.868;8.660;2023-04-16T07:40:04;10.70;99.90
4910;DHT22;2470;49.868;8.660;2023-04-16T07:42:30;10.70;99.90
4910;DHT22;2470;49.868;8.660;2023-04-16T07:44:55;10.80;99.90
4910;DHT22;2470;49.868;8.660;2023-04-16T07:47:21;10.60;99.90
4910;DHT22;2470;49.868;8.660;2023-04-16T07:49:48;10.60;99.90
4910;DHT22;2470;49.868;8.660;2023-04-16T07:52:14;10.60;99.90
4910;DHT22;2470;49.868;8.660;2023-04-16T07:54:40;10.60;99.90
4910;DHT22;2470;49.868;8.660;2023-04-16T07:57:05;10.50;99.90
4910;DHT22;2470;49.868;8.660;2023-04-16T07:59:31;10.60;99.90
4910;DHT22;2470;49.868;8.660;2023-04-16T08:01:56;10.60;99.90
4910;DHT22;2470;49.868;8.660;2023-04-16T08:04:22;10.70;99.90
4910;DHT22;2470;49.868;8.660;2023-04-16T08:06:49;10.60;99.90
4910;DHT22;2470;49.868;8.660;2023-04-16T08:09:15;10.50;99.90
4910;DHT22;2470;49.868;8.660;2023-04-16T08:11:41;10.50;99.90
4910;DHT22;2470;49.868;8.660;2023-04-16T08:14:06;10.50;99.90
4910;DHT22;2470;49.868;8.660;2023-04-16T08:16:32;10.50;99.90
4910;DHT22;2470;49.868;8.660;2023-04-16T08:18:57;10.50;99.90
4910;DHT22;2470;49.868;8.660;2023-04-16T08:21:25;10.50;99.90
4910;DHT22;2470;49.868;8.660;2023-04-16T08:23:52;10.50;99.90
4910;DHT22;2470;49.868;8.660;2023-04-16T08:26:18;10.60;99.90
4910;DHT22;2470;49.868;8.660;2023-04-16T08:28:43;10.50;99.90
4910;DHT22;2470;49.868;8.660;2023-04-16T08:31:09;10.50;99.90
4910;DHT22;2470;49.868;8.660;2023-04-16T08:33:34;10.40;99.90
4910;DHT22;2470;49.868;8.660;2023-04-16T08:36:00;10.50;99.90
4910;DHT22;2470;49.868;8.660;2023-04-16T08:38:25;10.40;99.90
4910;DHT22;2470;49.868;8.660;2023-04-16T08:40:52;10.40;99.90
4910;DHT22;2470;49.868;8.660;2023-04-16T08:43:20;10.40;99.90
4910;DHT22;2470;49.868;8.660;2023-04-16T08:45:48;10.40;99.90
4910;DHT22;2470;49.868;8.660;2023-04-16T08:48:14;10.40;99.90
4910;DHT22;2470;49.868;8.660;2023-04-16T08:50:40;10.40;99.90
4910;DHT22;2470;49.868;8.660;2023-04-16T08:53:06;10.40;99.90
4910;DHT22;2470;49.868;8.660;2023-04-16T08:55:37;10.50;99.90
4910;DHT22;2470;49.868;8.660;2023-04-16T08:58:14;10.50;99.90
4910;DHT22;2470;49.868;8.660;2023-04-16T09:00:40;10.60;99.90
4910;DHT22;2470;49.868;8.660;2023-04-16T09:03:08;10.60;99.90
4910;DHT22;2470;49.868;8.660;2023-04-16T09:05:35;10.60;99.90
4910;DHT22;2470;49.868;8.660;2023-04-16T09:08:01;10.60;99.90
4910;DHT22;2470;49.868;8.660;2023-04-16T09:10:27;10.70;99.90
4910;DHT22;2470;49.868;8.660;2023-04-16T09:12:56;10.70;99.90
4910;DHT22;2470;49.868;8.660;2023-04-16T09:15:22;10.70;99.90
4910;DHT22;2470;49.868;8.660;2023-04-16T09:17:47;10.70;99.90
4910;DHT22;2470;49.868;8.660;2023-04-16T09:20:14;10.90;99.90
4910;DHT22;2470;49.868;8.660;2023-04-16T09:22:40;10.80;99.90
4910;DHT22;2470;49.868;8.660;2023-04-16T09:25:06;10.90;99.90
4910;DHT22;2470;49.868;8.660;2023-04-16T09:27:32;11.00;99.90
4910;DHT22;2470;49.868;8.660;2023-04-16T09:29:58;11.00;99.90
4910;DHT22;2470;49.868;8.660;2023-04-16T09:32:27;11.00;99.90
4910;DHT22;2470;49.868;8.660;2023-04-16T09:34:57;11.00;99.90
4910;DHT22;2470;49.868;8.660;2023-04-16T09:37:24;10.90;99.90
4910;DHT22;2470;49.868;8.660;2023-04-16T09:39:58;10.90;99.90
4910;DHT22;2470;49.868;8.660;2023-04-16T09:42:26;11.00;99.90
4910;DHT22;2470;49.868;8.660;2023-04-16T09:44:52;11.00;99.90
4910;DHT22;2470;49.868;8.660;2023-04-16T09:47:19;11.10;99.90
4910;DHT22;2470;49.868;8.660;2023-04-16T09:49:44;11.10;99.90
4910;DHT22;2470;49.868;8.660;2023-04-16T09:52:16;11.10;99.90
4910;DHT22;2470;49.868;8.660;2023-04-16T09:54:46;11.00;99.90
4910;DHT22;2470;49.868;8.660;2023-04-16T09:57:11;11.10;99.90
4910;DHT22;2470;49.868;8.660;2023-04-16T09:59:37;11.10;99.90
4910;DHT22;2470;49.868;8.660;2023-04-16T10:02:02;11.10;99.90
4910;DHT22;2470;49.868;8.660;2023-04-16T10:04:28;11.20;99.90
4910;DHT22;2470;49.868;8.660;2023-04-16T10:07:05;11.20;99.90
4910;DHT22;2470;49.868;8.660;2023-04-16T10:09:35;11.20;99.90
4910;DHT22;2470;49.868;8.660;2023-04-16T10:12:01;11.20;99.90
4910;DHT22;2470;49.868;8.660;2023-04-16T10:14:27;11.30;99.90
4910;DHT22;2470;49.868;8.660;2023-04-16T10:16:53;11.30;99.90
4910;DHT22;2470;49.868;8.660;2023-04-16T10:19:20;11.30;99.90
4910;DHT22;2470;49.868;8.660;2023-04-16T10:21:46;11.30;99.90
4910;DHT22;2470;49.868;8.660;2023-04-16T10:24:13;11.30;99.90
4910;DHT22;2470;49.868;8.660;2023-04-16T10:26:41;11.30;99.90
4910;DHT22;2470;49.868;8.660;2023-04-16T10:29:08;11.20;99.90
4910;DHT22;2470;49.868;8.660;2023-04-16T10:31:37;11.30;99.90
4910;DHT22;2470;49.868;8.660;2023-04-16T10:34:06;11.20;99.90
4910;DHT22;2470;49.868;8.660;2023-04-16T10:36:35;11.20;99.90
4910;DHT22;2470;49.868;8.660;2023-04-16T10:39:01;11.30;99.90
4910;DHT22;2470;49.868;8.660;2023-04-16T10:41:27;11.40;99.90
4910;DHT22;2470;49.868;8.660;2023-04-16T10:44:02;11.40;99.90
4910;DHT22;2470;49.868;8.660;2023-04-16T10:46:37;11.40;99.90
4910;DHT22;2470;49.868;8.660;2023-04-16T10:49:22;11.40;99.90
4910;DHT22;2470;49.868;8.660;2023-04-16T10:51:56;11.40;99.90
4910;DHT22;2470;49.868;8.660;2023-04-16T10:54:26;11.40;99.90
4910;DHT22;2470;49.868;8.660;2023-04-16T10:56:52;11.50;99.90
4910;DHT22;2470;49.868;8.660;2023-04-16T10:59:19;11.50;99.90
4910;DHT22;2470;49.868;8.660;2023-04-16T11:01:57;11.50;99.90
4910;DHT22;2470;49.868;8.660;2023-04-16T11:09:58;11.60;99.90
4910;DHT22;2470;49.868;8.660;2023-04-16T11:12:28;11.60;99.90
4910;DHT22;2470;49.868;8.660;2023-04-16T11:17:46;11.70;99.90
4910;DHT22;2470;49.868;8.660;2023-04-16T11:20:15;11.70;99.90
4910;DHT22;2470;49.868;8.660;2023-04-16T11:22:41;11.60;99.90
4910;DHT22;2470;49.868;8.660;2023-04-16T11:25:07;11.60;99.90
4910;DHT22;2470;49.868;8.660;2023-04-16T11:27:33;11.60;99.90
4910;DHT22;2470;49.868;8.660;2023-04-16T11:30:00;11.60;99.90
4910;DHT22;2470;49.868;8.660;2023-04-16T11:32:26;11.70;99.90
4910;DHT22;2470;49.868;8.660;2023-04-16T11:34:52;11.80;99.90
4910;DHT22;2470;49.868;8.660;2023-04-16T11:37:20;11.80;99.90
4910;DHT22;2470;49.868;8.660;2023-04-16T11:39:50;11.70;99.90
4910;DHT22;2470;49.868;8.660;2023-04-16T11:42:20;11.70;99.90
4910;DHT22;2470;49.868;8.660;2023-04-16T11:44:54;11.70;99.90
4910;DHT22;2470;49.868;8.660;2023-04-16T11:47:20;11.90;99.90
4910;DHT22;2470;49.868;8.660;2023-04-16T11:49:45;11.80;99.90
4910;DHT22;2470;49.868;8.660;2023-04-16T11:52:11;11.90;99.90
4910;DHT22;2470;49.868;8.660;2023-04-16T11:54:37;11.90;99.90
4910;DHT22;2470;49.868;8.660;2023-04-16T11:57:03;11.90;99.90
4910;DHT22;2470;49.868;8.660;2023-04-16T11:59:31;11.90;99.90
4910;DHT22;2470;49.868;8.660;2023-04-16T12:01:57;11.90;99.90
4910;DHT22;2470;49.868;8.660;2023-04-16T12:04:24;11.90;99.90
4910;DHT22;2470;49.868;8.660;2023-04-16T12:07:09;11.90;99.90
4910;DHT22;2470;49.868;8.660;2023-04-16T12:09:40;12.00;99.90
4910;DHT22;2470;49.868;8.660;2023-04-16T12:12:25;12.00;99.90
4910;DHT22;2470;49.868;8.660;2023-04-16T12:14:52;12.10;99.90
4910;DHT22;2470;49.868;8.660;2023-04-16T12:17:22;12.20;99.90
4910;DHT22;2470;49.868;8.660;2023-04-16T12:20:12;12.30;99.90
4910;DHT22;2470;49.868;8.660;2023-04-16T12:22:39;12.40;99.90
4910;DHT22;2470;49.868;8.660;2023-04-16T12:25:15;12.60;99.90
4910;DHT22;2470;49.868;8.660;2023-04-16T12:27:54;12.70;99.90
4910;DHT22;2470;49.868;8.660;2023-04-16T12:30:22;12.80;99.90
4910;DHT22;2470;49.868;8.660;2023-04-16T12:32:49;12.80;99.90
4910;DHT22;2470;49.868;8.660;2023-04-16T12:35:29;12.80;99.90
4910;DHT22;2470;49.868;8.660;2023-04-16T12:37:55;12.80;99.90
4910;DHT22;2470;49.868;8.660;2023-04-16T12:40:21;12.80;99.90
4910;DHT22;2470;49.868;8.660;2023-04-16T12:42:46;12.80;99.90
4910;DHT22;2470;49.868;8.660;2023-04-16T12:45:12;12.80;99.90
4910;DHT22;2470;49.868;8.660;2023-04-16T12:47:37;12.70;99.90
4910;DHT22;2470;49.868;8.660;2023-04-16T12:50:03;12.70;99.90
4910;DHT22;2470;49.868;8.660;2023-04-16T12:52:28;12.60;99.90
4910;DHT22;2470;49.868;8.660;2023-04-16T12:54:55;12.60;99.90
4910;DHT22;2470;49.868;8.660;2023-04-16T12:57:20;12.50;99.90
4910;DHT22;2470;49.868;8.660;2023-04-16T12:59:48;12.50;99.90
4910;DHT22;2470;49.868;8.660;2023-04-16T13:02:13;12.50;99.90
4910;DHT22;2470;49.868;8.660;2023-04-16T13:04:39;12.40;99.90
4910;DHT22;2470;49.868;8.660;2023-04-16T13:07:04;12.40;99.90
4910;DHT22;2470;49.868;8.660;2023-04-16T13:09:30;12.50;99.90
4910;DHT22;2470;49.868;8.660;2023-04-16T13:11:55;12.50;99.90
4910;DHT22;2470;49.868;8.660;2023-04-16T13:14:24;12.50;99.90
4910;DHT22;2470;49.868;8.660;2023-04-16T13:16:50;12.50;99.90
4910;DHT22;2470;49.868;8.660;2023-04-16T13:19:16;12.50;99.90
4910;DHT22;2470;49.868;8.660;2023-04-16T13:21:43;12.40;99.90
4910;DHT22;2470;49.868;8.660;2023-04-16T13:24:08;12.40;99.90
4910;DHT22;2470;49.868;8.660;2023-04-16T13:26:34;12.50;99.90
4910;DHT22;2470;49.868;8.660;2023-04-16T13:29:00;12.60;99.90
4910;DHT22;2470;49.868;8.660;2023-04-16T13:31:25;12.60;99.90
4910;DHT22;2470;49.868;8.660;2023-04-16T13:33:51;12.60;99.90
4910;DHT22;2470;49.868;8.660;2023-04-16T13:36:17;12.60;99.90
4910;DHT22;2470;49.868;8.660;2023-04-16T13:38:42;12.70;99.90
4910;DHT22;2470;49.868;8.660;2023-04-16T13:41:08;12.80;99.90
4910;DHT22;2470;49.868;8.660;2023-04-16T13:43:33;12.80;99.90
4910;DHT22;2470;49.868;8.660;2023-04-16T13:45:59;12.90;99.90
4910;DHT22;2470;49.868;8.660;2023-04-16T13:48:25;13.00;99.90
4910;DHT22;2470;49.868;8.660;2023-04-16T13:50:50;13.00;99.90
4910;DHT22;2470;49.868;8.660;2023-04-16T13:53:16;13.20;99.90
4910;DHT22;2470;49.868;8.660;2023-04-16T13:55:42;13.30;99.90
4910;DHT22;2470;49.868;8.660;2023-04-16T13:58:07;13.40;99.90
4910;DHT22;2470;49.868;8.660;2023-04-16T14:00:33;13.50;99.90
4910;DHT22;2470;49.868;8.660;2023-04-16T14:02:59;13.50;99.90
4910;DHT22;2470;49.868;8.660;2023-04-16T14:05:24;13.40;99.90
4910;DHT22;2470;49.868;8.660;2023-04-16T14:07:50;13.50;99.90
4910;DHT22;2470;49.868;8.660;2023-04-16T14:10:16;13.50;99.90
4910;DHT22;2470;49.868;8.660;2023-04-16T14:12:42;13.60;99.90
4910;DHT22;2470;49.868;8.660;2023-04-16T14:15:08;13.60;99.90
4910;DHT22;2470;49.868;8.660;2023-04-16T14:17:35;13.70;99.90
4910;DHT22;2470;49.868;8.660;2023-04-16T14:20:04;13.70;99.90
4910;DHT22;2470;49.868;8.660;2023-04-16T14:22:30;13.60;99.90
4910;DHT22;2470;49.868;8.660;2023-04-16T14:24:55;13.50;99.90
4910;DHT22;2470;49.868;8.660;2023-04-16T14:27:21;13.50;99.90
4910;DHT22;2470;49.868;8.660;2023-04-16T14:29:47;13.40;99.90
4910;DHT22;2470;49.868;8.660;2023-04-16T14:32:12;13.30;99.90
4910;DHT22;2470;49.868;8.660;2023-04-16T14:34:38;13.30;99.90
4910;DHT22;2470;49.868;8.660;2023-04-16T14:37:04;13.30;99.90
4910;DHT22;2470;49.868;8.660;2023-04-16T14:39:30;13.30;99.90
4910;DHT22;2470;49.868;8.660;2023-04-16T14:41:58;13.30;99.90
4910;DHT22;2470;49.868;8.660;2023-04-16T14:44:23;13.30;99.90
4910;DHT22;2470;49.868;8.660;2023-04-16T14:46:49;13.40;99.90
4910;DHT22;2470;49.868;8.660;2023-04-16T14:49:14;13.50;99.90
4910;DHT22;2470;49.868;8.660;2023-04-16T14:51:40;13.50;99.90
4910;DHT22;2470;49.868;8.660;2023-04-16T14:54:06;13.50;99.90
4910;DHT22;2470;49.868;8.660;2023-04-16T14:56:32;13.50;99.90
4910;DHT22;2470;49.868;8.660;2023-04-16T14:58:57;13.50;99.90
4910;DHT22;2470;49.868;8.660;2023-04-16T15:01:23;13.50;99.90
4910;DHT22;2470;49.868;8.660;2023-04-16T15:03:48;13.40;99.90
4910;DHT22;2470;49.868;8.660;2023-04-16T15:06:14;13.40;99.90
4910;DHT22;2470;49.868;8.660;2023-04-16T15:08:40;13.40;99.90
4910;DHT22;2470;49.868;8.660;2023-04-16T15:11:06;13.40;99.90
4910;DHT22;2470;49.868;8.660;2023-04-16T15:13:32;13.30;99.90
4910;DHT22;2470;49.868;8.660;2023-04-16T15:16:00;13.30;99.90
4910;DHT22;2470;49.868;8.660;2023-04-16T15:18:27;13.20;99.90
4910;DHT22;2470;49.868;8.660;2023-04-16T15:20:53;13.20;99.90
4910;DHT22;2470;49.868;8.660;2023-04-16T15:23:19;13.20;99.90
4910;DHT22;2470;49.868;8.660;2023-04-16T15:25:45;13.10;99.90
4910;DHT22;2470;49.868;8.660;2023-04-16T15:28:10;13.10;99.90
4910;DHT22;2470;49.868;8.660;2023-04-16T15:30:38;13.00;99.90
4910;DHT22;2470;49.868;8.660;2023-04-16T15:33:03;12.90;99.90
4910;DHT22;2470;49.868;8.660;2023-04-16T15:35:29;12.80;99.90
4910;DHT22;2470;49.868;8.660;2023-04-16T15:37:55;12.80;99.90
4910;DHT22;2470;49.868;8.660;2023-04-16T15:40:20;12.80;99.90
4910;DHT22;2470;49.868;8.660;2023-04-16T15:42:46;12.80;99.90
4910;DHT22;2470;49.868;8.660;2023-04-16T15:45:12;12.80;99.90
4910;DHT22;2470;49.868;8.660;2023-04-16T15:47:38;12.80;99.90
4910;DHT22;2470;49.868;8.660;2023-04-16T15:50:04;12.80;99.90
4910;DHT22;2470;49.868;8.660;2023-04-16T15:52:29;12.90;99.90
4910;DHT22;2470;49.868;8.660;2023-04-16T15:54:55;12.90;99.90
4910;DHT22;2470;49.868;8.660;2023-04-16T15:57:21;12.90;99.90
4910;DHT22;2470;49.868;8.660;2023-04-16T15:59:46;12.90;99.90
4910;DHT22;2470;49.868;8.660;2023-04-16T16:02:12;12.90;99.90
4910;DHT22;2470;49.868;8.660;2023-04-16T16:04:37;13.00;99.90